sensor_id;sensor_type;location;lat;lon;timestamp;pressure;altitude;pressure_sealevel;temperature;humidity
1726;BME280;41776;48.260;8.928;2022-07-21T00:02:22;71129.78;;;-145.69;100.00
1726;BME280;41776;48.260;8.928;2022-07-21T00:04:48;71123.81;;;-145.69;100.00
1726;BME280;41776;48.260;8.928;2022-07-21T00:07:15;71125.81;;;-145.69;100.00
1726;BME280;41776;48.260;8.928;2022-07-21T00:09:41;71135.75;;;-145.69;100.00
1726;BME280;41776;48.260;8.928;2022-07-21T00:12:08;71135.75;;;-145.69;100.00
1726;BME280;41776;48.260;8.928;2022-07-21T00:14:34;71135.75;;;-145.69;100.00
1726;BME280;41776;48.260;8.928;2022-07-21T00:17:02;71137.75;;;-145.69;100.00
1726;BME280;41776;48.260;8.928;2022-07-21T00:19:28;71143.72;;;-145.69;100.00
1726;BME280;41776;48.260;8.928;2022-07-21T00:21:55;71141.72;;;-145.69;100.00
1726;BME280;41776;48.260;8.928;2022-07-21T00:24:22;71147.69;;;-145.69;100.00
1726;BME280;41776;48.260;8.928;2022-07-21T00:26:48;71151.69;;;-145.69;100.00
1726;BME280;41776;48.260;8.928;2022-07-21T00:29:15;71159.63;;;-145.69;100.00
1726;BME280;41776;48.260;8.928;2022-07-21T00:31:41;71163.63;;;-145.69;100.00
1726;BME280;41776;48.260;8.928;2022-07-21T00:34:09;71161.63;;;-145.69;100.00
1726;BME280;41776;48.260;8.928;2022-07-21T00:36:35;71161.63;;;-145.69;100.00
1726;BME280;41776;48.260;8.928;2022-07-21T00:39:02;71167.59;;;-145.69;100.00
1726;BME280;41776;48.260;8.928;2022-07-21T00:41:28;71163.63;;;-145.69;100.00
1726;BME280;41776;48.260;8.928;2022-07-21T00:43:55;71155.66;;;-145.69;100.00
1726;BME280;41776;48.260;8.928;2022-07-21T00:46:21;71157.66;;;-145.69;100.00
1726;BME280;41776;48.260;8.928;2022-07-21T00:48:48;71147.69;;;-145.69;100.00
1726;BME280;41776;48.260;8.928;2022-07-21T00:51:16;71153.66;;;-145.69;100.00
1726;BME280;41776;48.260;8.928;2022-07-21T00:53:43;71159.63;;;-145.69;100.00
1726;BME280;41776;48.260;8.928;2022-07-21T00:56:09;71163.63;;;-145.69;100.00
1726;BME280;41776;48.260;8.928;2022-07-21T00:58:36;71163.63;;;-145.69;100.00
1726;BME280;41776;48.260;8.928;2022-07-21T01:01:03;71163.63;;;-145.69;100.00
1726;BME280;41776;48.260;8.928;2022-07-21T01:03:30;71167.59;;;-145.69;100.00
1726;BME280;41776;48.260;8.928;2022-07-21T01:05:57;71183.50;;;-145.69;100.00
1726;BME280;41776;48.260;8.928;2022-07-21T01:08:25;71187.50;;;-145.69;100.00
1726;BME280;41776;48.260;8.928;2022-07-21T01:10:52;71193.47;;;-145.69;100.00
1726;BME280;41776;48.260;8.928;2022-07-21T01:13:19;71195.47;;;-145.69;100.00
1726;BME280;41776;48.260;8.928;2022-07-21T01:15:45;71197.44;;;-145.69;100.00
1726;BME280;41776;48.260;8.928;2022-07-21T01:18:12;71193.47;;;-145.69;100.00
1726;BME280;41776;48.260;8.928;2022-07-21T01:20:41;71187.50;;;-145.69;100.00
1726;BME280;41776;48.260;8.928;2022-07-21T01:23:12;71187.50;;;-145.69;100.00
1726;BME280;41776;48.260;8.928;2022-07-21T01:25:38;71177.53;;;-145.69;100.00
1726;BME280;41776;48.260;8.928;2022-07-21T01:28:05;71179.53;;;-145.69;100.00
1726;BME280;41776;48.260;8.928;2022-07-21T01:30:31;71179.53;;;-145.69;100.00
1726;BME280;41776;48.260;8.928;2022-07-21T01:32:58;71171.56;;;-145.69;100.00
1726;BME280;41776;48.260;8.928;2022-07-21T01:35:24;71175.56;;;-145.69;100.00
1726;BME280;41776;48.260;8.928;2022-07-21T01:37:51;71185.50;;;-145.69;100.00
1726;BME280;41776;48.260;8.928;2022-07-21T01:40:18;71183.50;;;-145.69;100.00
1726;BME280;41776;48.260;8.928;2022-07-21T01:43:04;71187.50;;;-145.69;100.00
1726;BME280;41776;48.260;8.928;2022-07-21T01:45:30;71179.53;;;-145.69;100.00
1726;BME280;41776;48.260;8.928;2022-07-21T01:47:57;71171.56;;;-145.69;100.00
1726;BME280;41776;48.260;8.928;2022-07-21T01:50:24;71173.56;;;-145.69;100.00
1726;BME280;41776;48.260;8.928;2022-07-21T01:52:53;71171.56;;;-145.69;100.00
1726;BME280;41776;48.260;8.928;2022-07-21T01:55:22;71179.53;;;-145.69;100.00
1726;BME280;41776;48.260;8.928;2022-07-21T01:57:48;71175.56;;;-145.69;100.00
1726;BME280;41776;48.260;8.928;2022-07-21T02:00:15;71177.53;;;-145.69;100.00
1726;BME280;41776;48.260;8.928;2022-07-21T02:02:42;71175.56;;;-145.69;100.00
1726;BME280;41776;48.260;8.928;2022-07-21T02:05:08;71175.56;;;-145.69;100.00
1726;BME280;41776;48.260;8.928;2022-07-21T02:07:35;71171.56;;;-145.69;100.00
1726;BME280;41776;48.260;8.928;2022-07-21T02:10:02;71171.56;;;-145.69;100.00
1726;BME280;41776;48.260;8.928;2022-07-21T02:12:30;71153.66;;;-145.69;100.00
1726;BME280;41776;48.260;8.928;2022-07-21T02:14:56;71153.66;;;-145.69;100.00
1726;BME280;41776;48.260;8.928;2022-07-21T02:17:23;71159.63;;;-145.69;100.00
1726;BME280;41776;48.260;8.928;2022-07-21T02:19:49;71165.59;;;-145.69;100.00
1726;BME280;41776;48.260;8.928;2022-07-21T02:22:15;71159.63;;;-145.69;100.00
1726;BME280;41776;48.260;8.928;2022-07-21T02:24:42;71161.63;;;-145.69;100.00
1726;BME280;41776;48.260;8.928;2022-07-21T02:27:08;71167.59;;;-145.69;100.00
1726;BME280;41776;48.260;8.928;2022-07-21T02:29:36;71167.59;;;-145.69;100.00
1726;BME280;41776;48.260;8.928;2022-07-21T02:32:03;71169.59;;;-145.69;100.00
1726;BME280;41776;48.260;8.928;2022-07-21T02:34:30;71171.56;;;-145.69;100.00
1726;BME280;41776;48.260;8.928;2022-07-21T02:36:56;71175.56;;;-145.69;100.00
1726;BME280;41776;48.260;8.928;2022-07-21T02:39:23;71187.50;;;-145.69;100.00
1726;BME280;41776;48.260;8.928;2022-07-21T02:41:51;71177.53;;;-145.69;100.00
1726;BME280;41776;48.260;8.928;2022-07-21T02:44:17;71181.53;;;-145.69;100.00
1726;BME280;41776;48.260;8.928;2022-07-21T02:46:45;71181.53;;;-145.69;100.00
1726;BME280;41776;48.260;8.928;2022-07-21T02:49:11;71181.53;;;-145.69;100.00
1726;BME280;41776;48.260;8.928;2022-07-21T02:51:38;71183.50;;;-145.69;100.00
1726;BME280;41776;48.260;8.928;2022-07-21T02:54:04;71187.50;;;-145.69;100.00
1726;BME280;41776;48.260;8.928;2022-07-21T02:56:31;71185.50;;;-145.69;100.00
1726;BME280;41776;48.260;8.928;2022-07-21T02:58:57;71179.53;;;-145.69;100.00
1726;BME280;41776;48.260;8.928;2022-07-21T03:01:23;71179.53;;;-145.69;100.00
1726;BME280;41776;48.260;8.928;2022-07-21T03:03:51;71191.47;;;-145.69;100.00
1726;BME280;41776;48.260;8.928;2022-07-21T03:06:17;71187.50;;;-145.69;100.00
1726;BME280;41776;48.260;8.928;2022-07-21T03:08:44;71187.50;;;-145.69;100.00
1726;BME280;41776;48.260;8.928;2022-07-21T03:11:10;71173.56;;;-145.69;100.00
1726;BME280;41776;48.260;8.928;2022-07-21T03:13:37;71173.56;;;-145.69;100.00
1726;BME280;41776;48.260;8.928;2022-07-21T03:16:03;71179.53;;;-145.69;100.00
1726;BME280;41776;48.260;8.928;2022-07-21T03:18:30;71179.53;;;-145.69;100.00
1726;BME280;41776;48.260;8.928;2022-07-21T03:20:58;71175.56;;;-145.69;100.00
1726;BME280;41776;48.260;8.928;2022-07-21T03:23:24;71167.59;;;-145.69;100.00
1726;BME280;41776;48.260;8.928;2022-07-21T03:25:51;71167.59;;;-145.69;100.00
1726;BME280;41776;48.260;8.928;2022-07-21T03:28:17;71167.59;;;-145.69;100.00
1726;BME280;41776;48.260;8.928;2022-07-21T03:30:44;71171.56;;;-145.69;100.00
1726;BME280;41776;48.260;8.928;2022-07-21T03:33:10;71175.56;;;-145.69;100.00
1726;BME280;41776;48.260;8.928;2022-07-21T03:35:37;71175.56;;;-145.69;100.00
1726;BME280;41776;48.260;8.928;2022-07-21T03:38:05;71175.56;;;-145.69;100.00
1726;BME280;41776;48.260;8.928;2022-07-21T03:40:33;71179.53;;;-145.69;100.00
1726;BME280;41776;48.260;8.928;2022-07-21T03:43:02;71189.47;;;-145.69;100.00
1726;BME280;41776;48.260;8.928;2022-07-21T03:45:30;71185.50;;;-145.69;100.00
1726;BME280;41776;48.260;8.928;2022-07-21T03:47:57;71189.47;;;-145.69;100.00
1726;BME280;41776;48.260;8.928;2022-07-21T03:50:24;71185.50;;;-145.69;100.00
1726;BME280;41776;48.260;8.928;2022-07-21T03:52:51;71189.47;;;-145.69;100.00
1726;BME280;41776;48.260;8.928;2022-07-21T03:55:19;71187.50;;;-145.69;100.00
1726;BME280;41776;48.260;8.928;2022-07-21T03:57:48;71191.47;;;-145.69;100.00
1726;BME280;41776;48.260;8.928;2022-07-21T04:00:17;71183.50;;;-145.69;100.00
1726;BME280;41776;48.260;8.928;2022-07-21T04:02:45;71189.47;;;-145.69;100.00
1726;BME280;41776;48.260;8.928;2022-07-21T04:05:12;71187.50;;;-145.69;100.00
1726;BME280;41776;48.260;8.928;2022-07-21T04:07:40;71183.50;;;-145.69;100.00
1726;BME280;41776;48.260;8.928;2022-07-21T04:10:07;71183.50;;;-145.69;100.00
1726;BME280;41776;48.260;8.928;2022-07-21T04:12:36;71187.50;;;-145.69;100.00
1726;BME280;41776;48.260;8.928;2022-07-21T04:15:03;71191.47;;;-145.69;100.00
1726;BME280;41776;48.260;8.928;2022-07-21T04:17:29;71187.50;;;-145.69;100.00
1726;BME280;41776;48.260;8.928;2022-07-21T04:19:56;71183.50;;;-145.69;100.00
1726;BME280;41776;48.260;8.928;2022-07-21T04:22:22;71181.53;;;-145.69;100.00
1726;BME280;41776;48.260;8.928;2022-07-21T04:24:49;71191.47;;;-145.69;100.00
1726;BME280;41776;48.260;8.928;2022-07-21T04:27:15;71199.44;;;-145.69;100.00
1726;BME280;41776;48.260;8.928;2022-07-21T04:29:43;71193.47;;;-145.69;100.00
1726;BME280;41776;48.260;8.928;2022-07-21T04:32:09;71195.47;;;-145.69;100.00
1726;BME280;41776;48.260;8.928;2022-07-21T04:34:36;71195.47;;;-145.69;100.00
1726;BME280;41776;48.260;8.928;2022-07-21T04:37:02;71201.41;;;-145.69;100.00
1726;BME280;41776;48.260;8.928;2022-07-21T04:39:29;71207.38;;;-145.69;100.00
1726;BME280;41776;48.260;8.928;2022-07-21T04:41:55;71201.41;;;-145.69;100.00
1726;BME280;41776;48.260;8.928;2022-07-21T04:44:22;71191.47;;;-145.69;100.00
1726;BME280;41776;48.260;8.928;2022-07-21T04:46:50;71191.47;;;-145.69;100.00
1726;BME280;41776;48.260;8.928;2022-07-21T04:49:16;71195.47;;;-145.69;100.00
1726;BME280;41776;48.260;8.928;2022-07-21T04:51:43;71203.41;;;-145.69;100.00
1726;BME280;41776;48.260;8.928;2022-07-21T04:54:09;71211.38;;;-145.69;100.00
1726;BME280;41776;48.260;8.928;2022-07-21T04:56:39;71223.31;;;-145.69;100.00
1726;BME280;41776;48.260;8.928;2022-07-21T04:59:05;71213.38;;;-145.69;100.00
1726;BME280;41776;48.260;8.928;2022-07-21T05:01:32;71211.38;;;-145.69;100.00
1726;BME280;41776;48.260;8.928;2022-07-21T05:03:59;71187.50;;;-145.69;100.00
1726;BME280;41776;48.260;8.928;2022-07-21T05:06:26;71165.59;;;-145.69;100.00
1726;BME280;41776;48.260;8.928;2022-07-21T05:08:52;71141.72;;;-145.69;100.00
1726;BME280;41776;48.260;8.928;2022-07-21T05:11:19;71145.72;;;-145.69;100.00
1726;BME280;41776;48.260;8.928;2022-07-21T05:13:45;71147.69;;;-145.69;100.00
1726;BME280;41776;48.260;8.928;2022-07-21T05:16:12;71139.75;;;-145.69;100.00
1726;BME280;41776;48.260;8.928;2022-07-21T05:18:38;71145.72;;;-145.69;100.00
1726;BME280;41776;48.260;8.928;2022-07-21T05:21:06;71135.75;;;-145.69;100.00
1726;BME280;41776;48.260;8.928;2022-07-21T05:23:33;71129.78;;;-145.69;100.00
1726;BME280;41776;48.260;8.928;2022-07-21T05:25:59;71135.75;;;-145.69;100.00
1726;BME280;41776;48.260;8.928;2022-07-21T05:28:27;71127.81;;;-145.69;100.00
1726;BME280;41776;48.260;8.928;2022-07-21T05:30:53;71127.81;;;-145.69;100.00
1726;BME280;41776;48.260;8.928;2022-07-21T05:33:20;71123.81;;;-145.69;100.00
1726;BME280;41776;48.260;8.928;2022-07-21T05:35:46;71109.91;;;-145.69;100.00
1726;BME280;41776;48.260;8.928;2022-07-21T05:38:14;71097.97;;;-145.69;100.00
1726;BME280;41776;48.260;8.928;2022-07-21T05:40:41;71068.13;;;-145.69;100.00
1726;BME280;41776;48.260;8.928;2022-07-21T05:43:07;71078.06;;;-145.69;100.00
1726;BME280;41776;48.260;8.928;2022-07-21T05:45:33;71064.13;;;-145.69;100.00
1726;BME280;41776;48.260;8.928;2022-07-21T05:48:00;71060.16;;;-145.69;100.00
1726;BME280;41776;48.260;8.928;2022-07-21T05:50:26;71056.16;;;-145.69;100.00
1726;BME280;41776;48.260;8.928;2022-07-21T05:52:53;71060.16;;;-145.69;100.00
1726;BME280;41776;48.260;8.928;2022-07-21T05:55:21;71084.03;;;-145.69;100.00
1726;BME280;41776;48.260;8.928;2022-07-21T05:57:47;71097.97;;;-145.69;100.00
1726;BME280;41776;48.260;8.928;2022-07-21T06:00:14;71111.88;;;-145.69;100.00
1726;BME280;41776;48.260;8.928;2022-07-21T06:02:41;71084.03;;;-145.69;100.00
1726;BME280;41776;48.260;8.928;2022-07-21T06:05:08;71060.16;;;-145.69;100.00
1726;BME280;41776;48.260;8.928;2022-07-21T06:07:36;71054.19;;;-145.69;100.00
1726;BME280;41776;48.260;8.928;2022-07-21T06:10:03;71072.09;;;-145.69;100.00
1726;BME280;41776;48.260;8.928;2022-07-21T06:12:30;71050.22;;;-145.69;100.00
1726;BME280;41776;48.260;8.928;2022-07-21T06:14:57;71022.34;;;-145.69;100.00
1726;BME280;41776;48.260;8.928;2022-07-21T06:17:23;70972.59;;;-145.69;100.00
1726;BME280;41776;48.260;8.928;2022-07-21T06:19:50;70954.69;;;-145.69;100.00
1726;BME280;41776;48.260;8.928;2022-07-21T06:22:16;71004.44;;;-145.69;100.00
1726;BME280;41776;48.260;8.928;2022-07-21T06:24:43;71040.25;;;-145.69;100.00
1726;BME280;41776;48.260;8.928;2022-07-21T06:27:09;71044.22;;;-145.69;100.00
1726;BME280;41776;48.260;8.928;2022-07-21T06:29:37;71052.19;;;-145.69;100.00
1726;BME280;41776;48.260;8.928;2022-07-21T06:32:04;71024.34;;;-145.69;100.00
1726;BME280;41776;48.260;8.928;2022-07-21T06:34:30;71052.19;;;-145.69;100.00
1726;BME280;41776;48.260;8.928;2022-07-21T06:36:57;71032.28;;;-145.69;100.00
1726;BME280;41776;48.260;8.928;2022-07-21T06:39:23;70980.56;;;-145.69;100.00
1726;BME280;41776;48.260;8.928;2022-07-21T06:41:50;71024.34;;;-145.69;100.00
1726;BME280;41776;48.260;8.928;2022-07-21T06:44:16;71032.28;;;-145.69;100.00
1726;BME280;41776;48.260;8.928;2022-07-21T06:46:44;71044.22;;;-145.69;100.00
1726;BME280;41776;48.260;8.928;2022-07-21T06:49:10;71024.34;;;-145.69;100.00
1726;BME280;41776;48.260;8.928;2022-07-21T06:51:37;70980.56;;;-145.69;100.00
1726;BME280;41776;48.260;8.928;2022-07-21T06:54:03;70922.88;;;-145.69;100.00
1726;BME280;41776;48.260;8.928;2022-07-21T06:56:30;70889.03;;;-145.69;100.00
1726;BME280;41776;48.260;8.928;2022-07-21T06:58:56;70897.00;;;-145.69;100.00
1726;BME280;41776;48.260;8.928;2022-07-21T07:01:22;70924.84;;;-145.69;100.00
1726;BME280;41776;48.260;8.928;2022-07-21T07:03:50;70942.75;;;-145.69;100.00
1726;BME280;41776;48.260;8.928;2022-07-21T07:06:17;70940.78;;;-145.69;100.00
1726;BME280;41776;48.260;8.928;2022-07-21T07:08:43;70940.78;;;-145.69;100.00
1726;BME280;41776;48.260;8.928;2022-07-21T07:11:10;70940.78;;;-145.69;100.00
1726;BME280;41776;48.260;8.928;2022-07-21T07:13:36;70964.66;;;-145.69;100.00
1726;BME280;41776;48.260;8.928;2022-07-21T07:16:03;70964.66;;;-145.69;100.00
1726;BME280;41776;48.260;8.928;2022-07-21T07:18:29;70926.84;;;-145.69;100.00
1726;BME280;41776;48.260;8.928;2022-07-21T07:20:57;70940.78;;;-145.69;100.00
1726;BME280;41776;48.260;8.928;2022-07-21T07:23:24;70932.81;;;-145.69;100.00
1726;BME280;41776;48.260;8.928;2022-07-21T07:25:50;70946.75;;;-145.69;100.00
1726;BME280;41776;48.260;8.928;2022-07-21T07:28:17;70936.78;;;-145.69;100.00
1726;BME280;41776;48.260;8.928;2022-07-21T07:30:43;70916.91;;;-145.69;100.00
1726;BME280;41776;48.260;8.928;2022-07-21T07:33:10;70835.31;;;-145.69;99.37
1726;BME280;41776;48.260;8.928;2022-07-21T07:35:36;70749.78;;;-145.69;98.03
1726;BME280;41776;48.260;8.928;2022-07-21T07:38:04;70694.06;;;-145.69;100.00
1726;BME280;41776;48.260;8.928;2022-07-21T07:40:31;70610.50;;;-145.69;94.42
1726;BME280;41776;48.260;8.928;2022-07-21T07:42:57;70626.41;;;-145.69;78.43
1726;BME280;41776;48.260;8.928;2022-07-21T07:45:24;70733.84;;;-145.69;84.31
1726;BME280;41776;48.260;8.928;2022-07-21T07:47:52;70745.78;;;-145.69;90.57
1726;BME280;41776;48.260;8.928;2022-07-21T07:50:18;70875.13;;;-145.69;95.02
1726;BME280;41776;48.260;8.928;2022-07-21T07:52:45;70920.88;;;-145.69;98.24
1726;BME280;41776;48.260;8.928;2022-07-21T07:55:14;70904.97;;;-145.69;94.66
1726;BME280;41776;48.260;8.928;2022-07-21T07:57:44;70881.09;;;-145.69;94.57
1726;BME280;41776;48.260;8.928;2022-07-21T08:00:13;70893.03;;;-145.69;92.87
1726;BME280;41776;48.260;8.928;2022-07-21T08:02:48;70849.25;;;-145.69;92.51
1726;BME280;41776;48.260;8.928;2022-07-21T08:05:17;70747.78;;;-145.69;88.38
1726;BME280;41776;48.260;8.928;2022-07-21T08:07:46;70666.22;;;-145.69;89.74
1726;BME280;41776;48.260;8.928;2022-07-21T08:10:16;70608.53;;;-145.69;77.89
1726;BME280;41776;48.260;8.928;2022-07-21T08:12:42;70652.28;;;-145.69;77.92
1726;BME280;41776;48.260;8.928;2022-07-21T08:15:09;70658.25;;;-145.69;86.41
1726;BME280;41776;48.260;8.928;2022-07-21T08:17:38;70688.09;;;-145.69;79.54
1726;BME280;41776;48.260;8.928;2022-07-21T08:20:05;70737.84;;;-145.69;81.47
1726;BME280;41776;48.260;8.928;2022-07-21T08:22:32;70789.56;;;-145.69;87.04
1726;BME280;41776;48.260;8.928;2022-07-21T08:24:58;70821.41;;;-145.69;88.45
1726;BME280;41776;48.260;8.928;2022-07-21T08:27:26;70777.63;;;-145.69;83.64
1726;BME280;41776;48.260;8.928;2022-07-21T08:29:52;70783.59;;;-145.69;81.17
1726;BME280;41776;48.260;8.928;2022-07-21T08:32:19;70781.59;;;-145.69;83.09
1726;BME280;41776;48.260;8.928;2022-07-21T08:34:45;70721.91;;;-145.69;83.10
1726;BME280;41776;48.260;8.928;2022-07-21T08:37:12;70682.13;;;-145.69;79.91
1726;BME280;41776;48.260;8.928;2022-07-21T08:39:38;70709.97;;;-145.69;80.76
1726;BME280;41776;48.260;8.928;2022-07-21T08:42:06;70745.78;;;-145.69;84.98
1726;BME280;41776;48.260;8.928;2022-07-21T08:44:36;70721.91;;;-145.69;84.14
1726;BME280;41776;48.260;8.928;2022-07-21T08:47:06;70801.50;;;-145.69;86.91
1726;BME280;41776;48.260;8.928;2022-07-21T08:49:34;70831.34;;;-145.69;83.63
1726;BME280;41776;48.260;8.928;2022-07-21T08:52:00;70821.41;;;-145.69;86.37
1726;BME280;41776;48.260;8.928;2022-07-21T08:54:28;70795.53;;;-145.69;82.37
1726;BME280;41776;48.260;8.928;2022-07-21T08:56:54;70759.72;;;-145.69;83.08
1726;BME280;41776;48.260;8.928;2022-07-21T08:59:21;70735.84;;;-145.69;81.93
1726;BME280;41776;48.260;8.928;2022-07-21T09:01:50;70757.72;;;-145.69;77.49
1726;BME280;41776;48.260;8.928;2022-07-21T09:04:24;70702.03;;;-145.69;82.35
1726;BME280;41776;48.260;8.928;2022-07-21T09:06:52;70680.13;;;-145.69;82.21
1726;BME280;41776;48.260;8.928;2022-07-21T09:09:20;70626.41;;;-145.69;78.47
1726;BME280;41776;48.260;8.928;2022-07-21T09:11:48;70654.28;;;-145.69;77.71
1726;BME280;41776;48.260;8.928;2022-07-21T09:14:17;70644.31;;;-145.69;80.59
1726;BME280;41776;48.260;8.928;2022-07-21T09:16:50;70690.09;;;-145.69;72.95
1726;BME280;41776;48.260;8.928;2022-07-21T09:19:21;70670.19;;;-145.69;76.91
1726;BME280;41776;48.260;8.928;2022-07-21T09:21:49;70634.38;;;-145.69;74.97
1726;BME280;41776;48.260;8.928;2022-07-21T09:24:22;70574.69;;;-145.69;73.65
1726;BME280;41776;48.260;8.928;2022-07-21T09:27:03;70558.78;;;-145.69;70.80
1726;BME280;41776;48.260;8.928;2022-07-21T09:29:36;70540.88;;;-145.69;65.55
1726;BME280;41776;48.260;8.928;2022-07-21T09:32:21;70503.06;;;-145.69;70.13
1726;BME280;41776;48.260;8.928;2022-07-21T09:34:50;70495.13;;;-145.69;67.21
1726;BME280;41776;48.260;8.928;2022-07-21T09:37:18;70485.16;;;-145.69;67.30
1726;BME280;41776;48.260;8.928;2022-07-21T09:39:46;70524.97;;;-145.69;68.50
1726;BME280;41776;48.260;8.928;2022-07-21T09:42:18;70469.25;;;-145.69;63.14
1726;BME280;41776;48.260;8.928;2022-07-21T09:44:47;70455.34;;;-145.69;64.52
1726;BME280;41776;48.260;8.928;2022-07-21T09:47:16;70467.28;;;-145.69;65.24
1726;BME280;41776;48.260;8.928;2022-07-21T09:49:43;70511.03;;;-145.69;65.37
1726;BME280;41776;48.260;8.928;2022-07-21T09:52:31;70558.78;;;-145.69;67.61
1726;BME280;41776;48.260;8.928;2022-07-21T09:55:10;70534.91;;;-145.69;66.50
1726;BME280;41776;48.260;8.928;2022-07-21T09:57:37;70586.63;;;-145.69;66.97
1726;BME280;41776;48.260;8.928;2022-07-21T10:00:05;70634.38;;;-145.69;68.39
1726;BME280;41776;48.260;8.928;2022-07-21T10:02:33;70578.69;;;-145.69;68.99
1726;BME280;41776;48.260;8.928;2022-07-21T10:05:03;70578.69;;;-145.69;70.48
1726;BME280;41776;48.260;8.928;2022-07-21T10:07:33;70630.41;;;-145.69;66.89
1726;BME280;41776;48.260;8.928;2022-07-21T10:10:02;70606.53;;;-145.69;71.29
1726;BME280;41776;48.260;8.928;2022-07-21T10:12:29;70564.75;;;-145.69;66.60
1726;BME280;41776;48.260;8.928;2022-07-21T10:14:56;70522.97;;;-145.69;65.53
1726;BME280;41776;48.260;8.928;2022-07-21T10:17:24;70570.72;;;-145.69;63.05
1726;BME280;41776;48.260;8.928;2022-07-21T10:20:01;70600.56;;;-145.69;59.99
1726;BME280;41776;48.260;8.928;2022-07-21T10:22:40;70576.69;;;-145.69;59.49
1726;BME280;41776;48.260;8.928;2022-07-21T10:25:10;70524.97;;;-145.69;60.96
1726;BME280;41776;48.260;8.928;2022-07-21T10:27:38;70415.53;;;-145.69;60.41
1726;BME280;41776;48.260;8.928;2022-07-21T10:30:06;70395.66;;;-145.69;57.09
1726;BME280;41776;48.260;8.928;2022-07-21T10:32:35;70415.53;;;-145.69;56.81
1726;BME280;41776;48.260;8.928;2022-07-21T10:35:25;70419.53;;;-145.69;52.14
1726;BME280;41776;48.260;8.928;2022-07-21T10:37:55;70489.16;;;-145.69;54.99
1726;BME280;41776;48.260;8.928;2022-07-21T10:40:38;70463.28;;;-145.69;56.10
1726;BME280;41776;48.260;8.928;2022-07-21T10:43:39;70532.91;;;-145.69;57.82
1726;BME280;41776;48.260;8.928;2022-07-21T10:46:37;70558.78;;;-145.69;56.65
1726;BME280;41776;48.260;8.928;2022-07-21T10:49:05;70538.88;;;-145.69;56.98
1726;BME280;41776;48.260;8.928;2022-07-21T10:51:33;70507.06;;;-145.69;55.72
1726;BME280;41776;48.260;8.928;2022-07-21T10:54:24;70467.28;;;-145.69;54.19
1726;BME280;41776;48.260;8.928;2022-07-21T10:57:28;70534.91;;;-145.69;56.95
1726;BME280;41776;48.260;8.928;2022-07-21T11:00:15;70554.81;;;-145.69;58.33
1726;BME280;41776;48.260;8.928;2022-07-21T11:02:42;70542.88;;;-145.69;59.34
1726;BME280;41776;48.260;8.928;2022-07-21T11:05:09;70554.81;;;-145.69;59.38
1726;BME280;41776;48.260;8.928;2022-07-21T11:08:07;70519.00;;;-145.69;62.31
1726;BME280;41776;48.260;8.928;2022-07-21T11:10:37;70421.50;;;-145.69;59.01
1726;BME280;41776;48.260;8.928;2022-07-21T11:13:04;70375.75;;;-145.69;54.03
1726;BME280;41776;48.260;8.928;2022-07-21T11:15:48;70339.94;;;-145.69;53.67
1726;BME280;41776;48.260;8.928;2022-07-21T11:18:21;70337.97;;;-145.69;52.70
1726;BME280;41776;48.260;8.928;2022-07-21T11:21:10;70361.84;;;-145.69;56.88
1726;BME280;41776;48.260;8.928;2022-07-21T11:23:42;70322.03;;;-145.69;54.16
1726;BME280;41776;48.260;8.928;2022-07-21T11:26:13;70304.13;;;-145.69;53.91
1726;BME280;41776;48.260;8.928;2022-07-21T11:28:40;70387.69;;;-145.69;51.95
1726;BME280;41776;48.260;8.928;2022-07-21T11:31:08;70391.66;;;-145.69;54.00
1726;BME280;41776;48.260;8.928;2022-07-21T11:33:35;70385.69;;;-145.69;49.08
1726;BME280;41776;48.260;8.928;2022-07-21T11:36:02;70355.88;;;-145.69;49.35
1726;BME280;41776;48.260;8.928;2022-07-21T11:38:29;70339.94;;;-145.69;52.14
1726;BME280;41776;48.260;8.928;2022-07-21T11:41:13;70274.31;;;-145.69;50.68
1726;BME280;41776;48.260;8.928;2022-07-21T11:43:40;70332.00;;;-145.69;48.69
1726;BME280;41776;48.260;8.928;2022-07-21T11:46:07;70353.88;;;-145.69;48.11
1726;BME280;41776;48.260;8.928;2022-07-21T11:48:33;70359.84;;;-145.69;45.85
1726;BME280;41776;48.260;8.928;2022-07-21T11:51:00;70383.72;;;-145.69;49.88
1726;BME280;41776;48.260;8.928;2022-07-21T11:53:26;70292.19;;;-145.69;48.93
1726;BME280;41776;48.260;8.928;2022-07-21T11:55:53;70210.66;;;-145.69;46.75
1726;BME280;41776;48.260;8.928;2022-07-21T11:58:21;70272.31;;;-145.69;45.24
1726;BME280;41776;48.260;8.928;2022-07-21T12:00:48;70308.13;;;-145.69;46.02
1726;BME280;41776;48.260;8.928;2022-07-21T12:03:15;70272.31;;;-145.69;45.70
1726;BME280;41776;48.260;8.928;2022-07-21T12:05:41;70244.47;;;-145.69;47.81
1726;BME280;41776;48.260;8.928;2022-07-21T12:08:08;70262.38;;;-145.69;44.70
1726;BME280;41776;48.260;8.928;2022-07-21T12:10:35;70248.44;;;-145.69;47.28
1726;BME280;41776;48.260;8.928;2022-07-21T12:13:04;70162.91;;;-145.69;49.91
1726;BME280;41776;48.260;8.928;2022-07-21T12:15:33;70125.09;;;-145.69;44.30
1726;BME280;41776;48.260;8.928;2022-07-21T12:18:02;70180.81;;;-145.69;42.81
1726;BME280;41776;48.260;8.928;2022-07-21T12:20:31;70204.69;;;-145.69;42.23
1726;BME280;41776;48.260;8.928;2022-07-21T12:22:59;70170.84;;;-145.69;43.05
1726;BME280;41776;48.260;8.928;2022-07-21T12:25:31;70093.28;;;-145.69;41.62
1726;BME280;41776;48.260;8.928;2022-07-21T12:27:58;70077.38;;;-145.69;41.93
1726;BME280;41776;48.260;8.928;2022-07-21T12:30:34;70037.59;;;-145.69;41.42
1726;BME280;41776;48.260;8.928;2022-07-21T12:33:03;70011.72;;;-145.69;44.14
1726;BME280;41776;48.260;8.928;2022-07-21T12:35:29;69985.88;;;-145.69;41.91
1726;BME280;41776;48.260;8.928;2022-07-21T12:38:03;69975.91;;;-145.69;43.32
1726;BME280;41776;48.260;8.928;2022-07-21T12:40:31;69983.88;;;-145.69;40.33
1726;BME280;41776;48.260;8.928;2022-07-21T12:43:09;70003.75;;;-145.69;39.53
1726;BME280;41776;48.260;8.928;2022-07-21T12:45:52;70015.69;;;-145.69;40.80
1726;BME280;41776;48.260;8.928;2022-07-21T12:48:21;69938.13;;;-145.69;42.09
1726;BME280;41776;48.260;8.928;2022-07-21T12:51:03;69890.38;;;-145.69;39.29